This is the latest recevied weather packets stored in our database for station/object NK7I. If no packets are shown the sender has not sent any weather packets the latest 10 day(s).
| Time | Temp. | Humidity | Pressure | Rain* | Wind** | Luminosity | Snow |
|---|---|---|---|---|---|---|---|
| 1778107583 | 22.78° C | 41% | 1010.1 hPa | 0 mm | - | 366 W/m² | - |
| 1778107283 | 23.33° C | 40% | 1010.3 hPa | 0 mm | - | 352 W/m² | - |
| 1778106983 | 23.33° C | 41% | 1010.3 hPa | 0 mm | - | 381 W/m² | - |
| 1778106682 | 23.33° C | 40% | 1010.3 hPa | 0 mm | - | 438 W/m² | - |
| 1778106382 | 23.33° C | 41% | 1010.3 hPa | 0 mm | - | 473 W/m² | - |
| 1778106083 | 23.33° C | 40% | 1010.5 hPa | 0 mm | - | 545 W/m² | - |
| 1778105782 | 23.33° C | 39% | 1010.4 hPa | 0 mm | - | 559 W/m² | - |
| 1778105482 | 23.33° C | 44% | 1010.6 hPa | 0 mm | - | 724 W/m² | - |
| 1778105187 | 22.78° C | 40% | 1010.7 hPa | 0 mm | - | 659 W/m² | - |
| 1778105183 | 22.78° C | 40% | 1010.7 hPa | 0 mm | - | 659 W/m² | - |
| 1778104882 | 22.78° C | 42% | 1010.8 hPa | 0 mm | - | 533 W/m² | - |
| 1778104582 | 22.78° C | 42% | 1010.9 hPa | 0 mm | - | 585 W/m² | - |
| 1778104282 | 22.22° C | 44% | 1011 hPa | 0 mm | - | 782 W/m² | - |
| 1778103982 | 22.22° C | 41% | 1011.1 hPa | 0 mm | - | 515 W/m² | - |
| 1778103682 | 22.22° C | 42% | 1011.3 hPa | 0 mm | - | 504 W/m² | - |
| 1778103382 | 22.22° C | 42% | 1009.5 hPa | 0 mm | - | 445 W/m² | - |
| 1778103083 | 22.22° C | 41% | 1009.5 hPa | 0 mm | - | 475 W/m² | - |
| 1778102783 | 22.22° C | 42% | 1009.6 hPa | 0 mm | - | 455 W/m² | - |
| 1778102483 | 22.22° C | 40% | 1009.6 hPa | 0 mm | - | 489 W/m² | - |
| 1778102183 | 22.22° C | 40% | 1009.6 hPa | 0 mm | - | 459 W/m² | - |
| 1778101882 | 22.22° C | 40% | 1009.5 hPa | 0 mm | - | 445 W/m² | - |
| 1778101582 | 22.22° C | 41% | 1009.6 hPa | 0 mm | - | 485 W/m² | - |
| 1778101282 | 22.22° C | 41% | 1009.6 hPa | 0 mm | - | 529 W/m² | - |
| 1778100982 | 22.22° C | 43% | 1009.6 hPa | 0 mm | - | 513 W/m² | - |
| 1778092282 | 18.33° C | 47% | 1012.1 hPa | 0 mm | - | 1227 W/m² | - |
* Rain latest hour (hover to see other rain measurements)
** Current wind speed in m/s (hover to see current wind gust speed)